Time;durP1;ratioP1;P1;durP2;ratioP2;P2;SDS_P1;SDS_P2;PMS_P1;PMS_P2;Temp;Humidity;BMP_temperature;BMP_pressure;BME280_temperature;BME280_humidity;BME280_pressure;Samples;Min_cycle;Max_cycle;Signal;HPM_P1;HPM_P2
2020/12/01 00:02:16;;;;;;;1.23;1.23;;;;;;;0.03;100.00;100776.03;5113347;28;20090;-71
2020/12/01 00:05:00;;;;;;;4.97;1.20;;;;;;;-0.04;100.00;100787.72;5113567;28;20096;-72
2020/12/01 00:07:44;;;;;;;4.93;1.33;;;;;;;-0.07;100.00;100787.72;5113755;28;20132;-72
2020/12/01 00:10:28;;;;;;;1.23;1.13;;;;;;;-0.11;100.00;100781.44;5113480;28;20077;-72
2020/12/01 00:13:12;;;;;;;3.22;1.10;;;;;;;-0.13;100.00;100784.53;5113354;28;20442;-72
2020/12/01 00:15:56;;;;;;;1.20;1.08;;;;;;;-0.17;100.00;100794.69;5113416;28;20446;-72
2020/12/01 00:18:41;;;;;;;1.65;1.55;;;;;;;-0.22;100.00;100791.53;5113612;28;20050;-72
2020/12/01 00:21:25;;;;;;;0.47;0.47;;;;;;;-0.29;100.00;100789.50;5113119;28;20034;-72
2020/12/01 00:24:09;;;;;;;1.45;0.73;;;;;;;-0.36;100.00;100778.50;5113521;28;20502;-72
2020/12/01 00:26:53;;;;;;;0.82;0.80;;;;;;;-0.41;100.00;100789.78;5113587;28;20061;-72
2020/12/01 00:29:37;;;;;;;5.40;1.33;;;;;;;-0.47;100.00;100796.78;5113653;28;20100;-72
2020/12/01 00:32:21;;;;;;;4.80;0.75;;;;;;;-0.53;100.00;100792.84;5113295;28;20054;-72
2020/12/01 00:35:08;;;;;;;2.67;0.98;;;;;;;-0.57;100.00;100792.00;5113279;28;20112;-72
2020/12/01 00:37:52;;;;;;;6.18;2.00;;;;;;;-0.65;100.00;100795.81;5112561;28;20055;-72
2020/12/01 00:40:36;;;;;;;2.70;0.73;;;;;;;-0.67;100.00;100800.91;5112563;28;20530;-73
2020/12/01 00:43:20;;;;;;;0.88;0.88;;;;;;;-0.68;100.00;100806.75;5112747;28;20046;-72
2020/12/01 00:46:04;;;;;;;0.80;0.70;;;;;;;-0.71;100.00;100808.28;5097034;28;20161;-72
2020/12/01 00:48:48;;;;;;;0.65;0.60;;;;;;;-0.72;100.00;100814.13;5112993;28;20372;-72
2020/12/01 00:51:32;;;;;;;1.15;0.90;;;;;;;-0.73;100.00;100810.59;5112879;28;20711;-72
2020/12/01 00:54:17;;;;;;;0.50;0.50;;;;;;;-0.74;100.00;100817.25;5112963;28;20491;-72
2020/12/01 00:57:01;;;;;;;0.98;0.73;;;;;;;-0.75;100.00;100812.94;5113220;28;20039;-72
2020/12/01 00:59:45;;;;;;;0.30;0.30;;;;;;;-0.79;100.00;100814.84;5112470;28;20093;-72
2020/12/01 01:02:29;;;;;;;0.80;0.80;;;;;;;-0.83;100.00;100827.69;5112646;28;20039;-72
2020/12/01 01:05:14;;;;;;;14.57;1.08;;;;;;;-0.86;100.00;100812.03;5112839;28;20402;-73
2020/12/01 01:07:58;;;;;;;7.20;1.75;;;;;;;-0.86;100.00;100822.97;5113091;28;20051;-72
2020/12/01 01:10:42;;;;;;;6.35;2.30;;;;;;;-0.84;100.00;100820.66;5112586;28;20058;-72
2020/12/01 01:13:26;;;;;;;1.70;1.60;;;;;;;-0.85;100.00;100827.28;5111396;28;20421;-72
2020/12/01 01:16:10;;;;;;;1.05;1.05;;;;;;;-0.84;100.00;100829.66;5112337;28;20055;-72
2020/12/01 01:18:54;;;;;;;1.45;1.33;;;;;;;-0.85;100.00;100835.50;5112664;28;20038;-73
2020/12/01 01:21:39;;;;;;;1.50;1.27;;;;;;;-0.85;100.00;100830.03;5112436;28;20054;-72
2020/12/01 01:24:24;;;;;;;1.48;1.38;;;;;;;-0.82;100.00;100829.25;5112405;28;20051;-72
2020/12/01 01:27:08;;;;;;;0.55;0.55;;;;;;;-0.79;100.00;100831.25;5112573;28;20051;-72
2020/12/01 01:29:52;;;;;;;2.47;2.25;;;;;;;-0.81;100.00;100826.16;5112359;28;20056;-72
2020/12/01 01:32:36;;;;;;;1.92;1.73;;;;;;;-0.86;100.00;100822.97;5111885;28;20068;-72
2020/12/01 01:35:19;;;;;;;1.75;1.23;;;;;;;-0.89;100.00;100824.50;5112450;28;20046;-72
2020/12/01 01:38:05;;;;;;;1.75;1.10;;;;;;;-0.94;100.00;100832.25;5112278;28;20400;-72
2020/12/01 01:40:54;;;;;;;0.80;0.80;;;;;;;-0.95;100.00;100827.94;5111794;28;20061;-72
2020/12/01 01:43:38;;;;;;;0.77;0.77;;;;;;;-0.92;100.00;100832.69;5112136;28;20134;-72
2020/12/01 01:46:37;;;;;;;9.50;1.30;;;;;;;-0.91;100.00;100856.13;5112143;28;20166;-72
2020/12/01 01:49:32;;;;;;;1.00;1.00;;;;;;;-0.89;100.00;100857.31;5112263;28;20078;-73
2020/12/01 01:52:26;;;;;;;0.68;0.68;;;;;;;-0.82;100.00;100865.59;5112215;28;20066;-72
2020/12/01 01:55:15;;;;;;;0.60;0.60;;;;;;;-0.80;100.00;100859.75;5125796;27;20086;-73
2020/12/01 01:58:04;;;;;;;1.02;1.02;;;;;;;-0.79;100.00;100856.66;5112439;28;20376;-73
2020/12/01 02:01:01;;;;;;;1.33;1.30;;;;;;;-0.87;100.00;100859.69;5111926;28;20046;-73
2020/12/01 02:03:51;;;;;;;1.50;1.40;;;;;;;-0.96;100.00;100856.47;5112106;28;20136;-72
2020/12/01 02:06:51;;;;;;;2.00;1.77;;;;;;;-1.09;100.00;100857.88;5112170;28;20064;-73
2020/12/01 02:09:50;;;;;;;7.22;0.93;;;;;;;-1.14;100.00;100864.44;5112387;28;20065;-72
2020/12/01 02:12:35;;;;;;;0.70;0.70;;;;;;;-1.19;100.00;100872.97;5115728;28;20176;-72
2020/12/01 02:15:20;;;;;;;1.70;1.60;;;;;;;-1.17;100.00;100872.59;5116248;28;20050;-72
2020/12/01 02:18:04;;;;;;;1.20;0.98;;;;;;;-1.17;100.00;100867.91;5116189;28;20465;-72
2020/12/01 02:20:48;;;;;;;0.65;0.65;;;;;;;-1.17;100.00;100873.38;5115923;28;20047;-72
2020/12/01 02:23:32;;;;;;;0.45;0.45;;;;;;;-1.16;100.00;100863.25;5115633;28;20086;-72
2020/12/01 02:26:16;;;;;;;2.55;1.73;;;;;;;-1.17;100.00;100861.69;5115747;28;20057;-72
2020/12/01 02:29:02;;;;;;;0.98;0.98;;;;;;;-1.16;100.00;100876.91;5115846;28;20403;-72
2020/12/01 02:31:46;;;;;;;2.85;0.93;;;;;;;-1.15;100.00;100881.22;5115486;28;20177;-73
2020/12/01 02:34:38;;;;;;;0.75;0.70;;;;;;;-1.10;100.00;100887.13;5115371;28;20116;-72
2020/12/01 02:37:25;;;;;;;0.50;0.45;;;;;;;-1.02;100.00;100880.59;5114287;27;20434;-72
2020/12/01 02:40:11;;;;;;;0.70;0.70;;;;;;;-0.99;100.00;100879.06;5095167;28;20870;-73
2020/12/01 02:42:55;;;;;;;0.88;0.88;;;;;;;-0.99;100.00;100879.06;5095109;28;20042;-72
2020/12/01 02:45:39;;;;;;;0.63;0.63;;;;;;;-1.00;100.00;100872.03;5094757;28;20051;-72
2020/12/01 02:48:23;;;;;;;2.15;1.13;;;;;;;-1.03;100.00;100884.50;5095283;28;20043;-72
2020/12/01 02:51:07;;;;;;;0.45;0.40;;;;;;;-1.03;100.00;100875.50;5095000;28;20537;-73
2020/12/01 02:53:51;;;;;;;0.65;0.65;;;;;;;-1.00;100.00;100877.50;5095138;28;20543;-72
2020/12/01 02:56:35;;;;;;;1.05;0.70;;;;;;;-0.95;100.00;100890.81;5094639;28;20163;-72
2020/12/01 02:59:19;;;;;;;1.00;0.82;;;;;;;-0.93;100.00;100888.50;5095029;28;20396;-72
2020/12/01 03:02:03;;;;;;;0.50;0.50;;;;;;;-0.92;100.00;100896.34;5094780;28;20055;-72
2020/12/01 03:04:48;;;;;;;0.40;0.40;;;;;;;-0.84;100.00;100897.22;5094818;28;20149;-72
2020/12/01 03:07:31;;;;;;;1.83;1.08;;;;;;;-0.80;100.00;100881.63;5094536;28;20051;-72
2020/12/01 03:10:15;;;;;;;0.43;0.43;;;;;;;-0.80;100.00;100889.81;5094967;28;20043;-72
2020/12/01 03:12:59;;;;;;;2.17;1.33;;;;;;;-0.80;100.00;100889.81;5094287;28;20038;-72
2020/12/01 03:15:45;;;;;;;0.43;0.43;;;;;;;-0.81;100.00;100896.47;5094325;28;20419;-72
2020/12/01 03:18:29;;;;;;;1.75;1.02;;;;;;;-0.85;100.00;100898.38;5094139;28;20089;-73
2020/12/01 03:21:15;;;;;;;0.80;0.80;;;;;;;-0.85;100.00;100901.13;5094702;28;20047;-73
2020/12/01 03:23:59;;;;;;;0.70;0.70;;;;;;;-0.82;100.00;100903.09;5093540;28;20047;-72
2020/12/01 03:26:43;;;;;;;0.60;0.60;;;;;;;-0.81;100.00;100899.22;5094332;28;20449;-72
2020/12/01 03:29:27;;;;;;;0.95;0.75;;;;;;;-0.83;100.00;100905.06;5094544;28;20050;-73
2020/12/01 03:32:11;;;;;;;0.98;0.77;;;;;;;-0.83;100.00;100905.06;5094379;28;20051;-72
2020/12/01 03:34:55;;;;;;;0.60;0.60;;;;;;;-0.85;100.00;100895.66;5094252;28;20105;-72
2020/12/01 03:37:39;;;;;;;0.57;0.57;;;;;;;-0.85;100.00;100890.19;5094045;28;20097;-72
2020/12/01 03:40:23;;;;;;;0.50;0.50;;;;;;;-0.83;100.00;100893.31;5093983;28;20400;-72
2020/12/01 03:43:07;;;;;;;0.52;0.52;;;;;;;-0.81;100.00;100896.47;5094021;28;20101;-73
2020/12/01 03:45:52;;;;;;;1.23;1.10;;;;;;;-0.80;100.00;100908.97;5093990;28;20493;-72
2020/12/01 03:48:37;;;;;;;0.60;0.60;;;;;;;-0.82;100.00;100912.09;5093464;28;20139;-72
2020/12/01 03:51:20;;;;;;;0.80;0.80;;;;;;;-0.84;100.00;100913.59;5093496;28;20519;-72
2020/12/01 03:54:04;;;;;;;0.63;0.63;;;;;;;-0.89;100.00;100912.00;5094032;28;20121;-73
2020/12/01 03:56:48;;;;;;;0.65;0.65;;;;;;;-0.89;100.00;100922.16;5093741;28;20043;-75
2020/12/01 03:59:32;;;;;;;0.65;0.65;;;;;;;-0.92;100.00;100907.28;5094059;28;20411;-74
2020/12/01 04:02:16;;;;;;;0.95;0.95;;;;;;;-0.91;100.00;100902.63;5093863;28;20556;-75
2020/12/01 04:05:00;;;;;;;0.50;0.50;;;;;;;-0.90;100.00;100901.44;5093686;28;20050;-75
2020/12/01 04:07:46;;;;;;;0.60;0.60;;;;;;;-0.93;100.00;100902.16;5092964;28;20446;-75
2020/12/01 04:10:30;;;;;;;1.10;0.95;;;;;;;-0.86;100.00;100911.25;5093366;28;20074;-75
2020/12/01 04:13:14;;;;;;;4.25;1.75;;;;;;;-0.91;100.00;100919.00;5091771;28;20121;-75
2020/12/01 04:15:57;;;;;;;1.17;1.17;;;;;;;-0.92;100.00;100922.91;5076316;28;20094;-75
2020/12/01 04:18:41;;;;;;;0.50;0.50;;;;;;;-0.96;100.00;100917.41;5092120;28;20495;-75
2020/12/01 04:21:25;;;;;;;4.53;0.98;;;;;;;-0.95;100.00;100918.16;5095387;28;20135;-75
2020/12/01 04:24:09;;;;;;;0.70;0.70;;;;;;;-0.95;100.00;100915.44;5094459;28;20400;-74
2020/12/01 04:26:53;;;;;;;9.40;1.15;;;;;;;-0.94;100.00;100922.47;5092970;28;20420;-75
2020/12/01 04:29:37;;;;;;;7.88;1.20;;;;;;;-0.97;100.00;100928.69;5077663;28;20113;-74
2020/12/01 04:32:22;;;;;;;0.65;0.65;;;;;;;-1.00;100.00;100927.50;5113092;28;20098;-74
2020/12/01 04:35:06;;;;;;;0.63;0.63;;;;;;;-1.05;100.00;100935.22;5111873;28;20062;-75
2020/12/01 04:37:57;;;;;;;0.80;0.80;;;;;;;-1.06;100.00;100933.66;5112847;28;20046;-74
2020/12/01 04:40:42;;;;;;;19.17;1.15;;;;;;;-1.11;100.00;100942.19;5112847;28;20069;-74
2020/12/01 04:43:55;;;;;;;1.35;1.10;;;;;;;-1.14;100.00;100940.16;5112955;28;20128;-75
2020/12/01 04:46:39;;;;;;;2.15;0.90;;;;;;;-1.15;100.00;100936.66;5112793;28;20093;-74
2020/12/01 04:49:35;;;;;;;1.55;1.33;;;;;;;-1.15;100.00;100941.34;5112870;28;20168;-75
2020/12/01 04:52:51;;;;;;;0.50;0.50;;;;;;;-1.16;100.00;100945.22;5112842;28;20038;-75
2020/12/01 04:56:13;;;;;;;0.60;0.60;;;;;;;-1.17;100.00;100954.59;5112436;28;20043;-74
2020/12/01 04:59:12;;;;;;;0.52;0.52;;;;;;;-1.21;100.00;100942.84;5112817;28;20469;-75
2020/12/01 05:02:40;;;;;;;1.02;1.02;;;;;;;-1.27;100.00;100933.34;5112733;28;20046;-75
2020/12/01 05:09:03;;;;;;;0.75;0.75;;;;;;;-1.37;100.00;100951.19;5113312;28;20112;-74
2020/12/01 05:11:53;;;;;;;1.08;1.02;;;;;;;-1.39;100.00;100958.16;5112964;28;20042;-74
2020/12/01 05:14:44;;;;;;;2.63;1.25;;;;;;;-1.44;100.00;100962.00;5112875;28;20084;-75
2020/12/01 05:17:28;;;;;;;0.73;0.73;;;;;;;-1.47;100.00;100962.72;5112917;28;20042;-76
2020/12/01 05:20:12;;;;;;;1.48;1.38;;;;;;;-1.47;100.00;100961.97;5097213;28;20046;-75
2020/12/01 05:23:00;;;;;;;0.80;0.80;;;;;;;-1.48;100.00;100963.91;5113023;28;20065;-75
2020/12/01 05:25:44;;;;;;;1.63;1.52;;;;;;;-1.49;100.00;100967.78;5113022;28;20055;-75
2020/12/01 05:28:28;;;;;;;0.80;0.80;;;;;;;-1.49;100.00;100969.75;5112373;28;20046;-75
2020/12/01 05:31:15;;;;;;;1.38;0.70;;;;;;;-1.52;100.00;100976.72;5112540;28;20039;-75
2020/12/01 05:34:04;;;;;;;1.45;1.27;;;;;;;-1.50;100.00;100973.59;5112511;28;20051;-75
2020/12/01 05:36:49;;;;;;;4.15;1.63;;;;;;;-1.50;100.00;100974.41;5112757;28;20050;-75
2020/12/01 05:39:34;;;;;;;2.17;1.30;;;;;;;-1.49;100.00;100975.19;5114472;28;20046;-75
2020/12/01 05:42:20;;;;;;;3.33;1.52;;;;;;;-1.49;100.00;100975.97;5114433;28;20046;-75
2020/12/01 05:45:04;;;;;;;1.00;1.00;;;;;;;-1.44;100.00;100977.59;5114542;28;20047;-74
2020/12/01 05:47:54;;;;;;;1.17;1.13;;;;;;;-1.44;100.00;100981.13;5115695;28;20038;-75
2020/12/01 05:50:55;;;;;;;1.23;1.05;;;;;;;-1.43;100.00;100990.13;5112953;28;20192;-75
2020/12/01 05:53:41;;;;;;;4.43;1.00;;;;;;;-1.42;100.00;100991.66;5123642;28;20081;-75
2020/12/01 05:56:26;;;;;;;0.52;0.52;;;;;;;-1.45;100.00;100992.44;5116373;28;20066;-76
2020/12/01 05:59:15;;;;;;;0.73;0.73;;;;;;;-1.48;100.00;100993.16;5112617;28;20046;-75
2020/12/01 06:02:05;;;;;;;2.72;0.80;;;;;;;-1.49;100.00;100994.31;5112198;28;20071;-75
2020/12/01 06:04:49;;;;;;;1.08;1.08;;;;;;;-1.52;100.00;100989.56;5112156;28;20046;-76
2020/12/01 06:07:34;;;;;;;1.23;1.20;;;;;;;-1.56;100.00;100993.03;5112333;28;20517;-75
2020/12/01 06:10:29;;;;;;;0.75;0.75;;;;;;;-1.59;100.00;100987.53;5112493;28;20089;-76
2020/12/01 06:13:42;;;;;;;1.10;1.10;;;;;;;-1.62;100.00;100989.03;5112296;28;20089;-76
2020/12/01 06:16:48;;;;;;;1.08;1.08;;;;;;;-1.63;100.00;100992.94;5112052;28;20063;-75
2020/12/01 06:19:42;;;;;;;1.85;1.55;;;;;;;-1.62;100.00;100988.25;5112415;28;20140;-76
2020/12/01 06:23:01;;;;;;;1.48;1.38;;;;;;;-1.61;100.00;100996.09;5112166;28;20529;-76
2020/12/01 06:26:22;;;;;;;0.88;0.85;;;;;;;-1.56;100.00;101003.94;5078578;28;20054;-76
2020/12/01 06:29:24;;;;;;;1.05;0.98;;;;;;;-1.55;100.00;101005.53;5096829;28;20050;-76
2020/12/01 06:32:30;;;;;;;4.88;2.35;;;;;;;-1.60;100.00;101007.78;5091826;28;20047;-76
2020/12/01 06:35:48;;;;;;;3.30;2.45;;;;;;;-1.71;100.00;101015.78;5092539;28;20055;-75
2020/12/01 06:38:51;;;;;;;7.85;2.42;;;;;;;-1.79;100.00;101005.13;5091975;28;20059;-75
2020/12/01 06:41:40;;;;;;;4.70;2.90;;;;;;;-1.83;100.00;101010.53;5090815;28;20047;-75
2020/12/01 06:44:27;;;;;;;6.47;3.80;;;;;;;-1.86;100.00;101008.50;5090851;28;20087;-75
2020/12/01 06:47:11;;;;;;;1.90;1.75;;;;;;;-1.82;100.00;101016.78;5091019;28;20047;-75
2020/12/01 06:50:01;;;;;;;1.45;1.35;;;;;;;-1.80;100.00;101025.41;5091037;28;20411;-75
2020/12/01 06:53:01;;;;;;;7.70;3.17;;;;;;;-1.80;100.00;101034.34;5091580;28;20058;-75
2020/12/01 06:55:56;;;;;;;1.40;1.40;;;;;;;-1.84;100.00;101047.16;5091788;28;20069;-75
2020/12/01 06:58:45;;;;;;;1.40;1.40;;;;;;;-1.87;100.00;101053.34;5093542;28;20047;-74
2020/12/01 07:01:31;;;;;;;2.63;2.40;;;;;;;-1.90;100.00;101051.34;5094973;28;20072;-75
2020/12/01 07:04:27;;;;;;;1.02;1.02;;;;;;;-1.94;100.00;101050.50;5094713;28;20055;-75
2020/12/01 07:07:28;;;;;;;4.75;4.30;;;;;;;-1.97;100.00;101043.00;5095135;28;20400;-75
2020/12/01 07:10:19;;;;;;;3.55;2.55;;;;;;;-2.00;100.00;101046.47;5094697;28;20063;-75
2020/12/01 07:13:20;;;;;;;1.60;1.52;;;;;;;-2.03;100.00;101049.94;5094986;28;20110;-75
2020/12/01 07:16:08;;;;;;;3.35;1.75;;;;;;;-2.01;100.00;101047.63;5094817;28;20047;-74
2020/12/01 07:18:56;;;;;;;1.23;1.23;;;;;;;-1.98;100.00;101052.38;5094694;28;20104;-75
2020/12/01 07:22:08;;;;;;;14.80;2.13;;;;;;;-1.93;100.00;101065.72;5094728;28;20043;-75
2020/12/01 07:24:55;;;;;;;1.30;1.30;;;;;;;-1.90;100.00;101065.00;5094891;28;20454;-75
2020/12/01 07:27:45;;;;;;;8.25;1.30;;;;;;;-1.90;100.00;101070.44;5094820;28;20058;-75
2020/12/01 07:30:53;;;;;;;2.10;2.05;;;;;;;-1.92;100.00;101072.75;5101658;28;20042;-75
2020/12/01 07:33:50;;;;;;;2.92;2.17;;;;;;;-1.97;100.00;101067.56;5093284;28;20050;-76
2020/12/01 07:36:37;;;;;;;24.13;2.15;;;;;;;-1.99;100.00;101067.16;5114505;28;20046;-75
2020/12/01 07:39:28;;;;;;;2.05;1.35;;;;;;;-2.00;100.00;101071.06;5115014;28;20050;-75
2020/12/01 07:42:20;;;;;;;3.28;2.53;;;;;;;-2.03;100.00;101071.75;5114435;28;20046;-75
2020/12/01 07:45:17;;;;;;;10.90;2.42;;;;;;;-2.03;100.00;101079.16;5114625;28;20073;-75
2020/12/01 07:48:02;;;;;;;2.88;2.10;;;;;;;-2.02;100.00;101084.28;5115149;28;20051;-75
2020/12/01 07:50:47;;;;;;;2.67;2.47;;;;;;;-2.03;100.00;101082.66;5118212;28;20141;-76
2020/12/01 07:53:33;;;;;;;7.75;1.55;;;;;;;-2.05;100.00;101084.19;5122674;28;20073;-75
2020/12/01 07:56:21;;;;;;;4.75;2.65;;;;;;;-2.06;100.00;101086.16;5122870;28;20043;-75
2020/12/01 07:59:12;;;;;;;7.40;2.90;;;;;;;-2.07;100.00;101092.72;5119143;28;20078;-76
2020/12/01 08:02:04;;;;;;;8.88;2.28;;;;;;;-2.11;100.00;101091.88;5118411;28;20556;-76
2020/12/01 08:05:05;;;;;;;1.63;1.58;;;;;;;-2.12;100.00;101086.78;5119210;28;20074;-75
2020/12/01 08:07:58;;;;;;;14.68;3.75;;;;;;;-2.11;100.00;101093.81;5118944;28;20457;-75
2020/12/01 08:10:45;;;;;;;4.50;1.80;;;;;;;-2.08;100.00;101112.97;5117671;28;20054;-74
2020/12/01 08:13:32;;;;;;;10.38;3.10;;;;;;;-2.08;100.00;101109.47;5116592;28;20050;-75
2020/12/01 08:16:18;;;;;;;4.18;1.92;;;;;;;-2.08;100.00;101107.50;5118851;28;20152;-76
2020/12/01 08:19:04;;;;;;;2.80;2.55;;;;;;;-2.08;100.00;101107.50;5121552;28;20054;-75
2020/12/01 08:21:48;;;;;;;5.18;2.22;;;;;;;-2.10;100.00;101118.00;5120914;28;20506;-76
2020/12/01 08:24:37;;;;;;;14.10;4.05;;;;;;;-2.09;100.00;101130.50;5120037;28;20094;-75
2020/12/01 08:27:26;;;;;;;5.40;2.97;;;;;;;-2.07;100.00;101132.88;5115771;28;20108;-75
2020/12/01 08:30:34;;;;;;;8.35;2.63;;;;;;;-2.07;100.00;101122.75;5114606;28;20080;-75
2020/12/01 08:33:32;;;;;;;11.57;2.58;;;;;;;-2.07;100.00;101120.03;5112956;28;20055;-75
2020/12/01 08:36:45;;;;;;;7.15;2.38;;;;;;;-2.04;100.00;101118.53;5113230;28;20126;-74
2020/12/01 08:39:45;;;;;;;7.70;2.80;;;;;;;-2.04;100.00;101124.78;5112875;28;20077;-76
2020/12/01 08:42:41;;;;;;;1.98;1.92;;;;;;;-2.06;100.00;101121.63;5112786;28;20050;-75
2020/12/01 08:45:53;;;;;;;3.25;2.75;;;;;;;-2.05;100.00;101120.44;5113825;28;20136;-75
2020/12/01 08:48:46;;;;;;;11.00;2.92;;;;;;;-2.02;100.00;101106.09;5114472;28;20060;-76
2020/12/01 08:51:52;;;;;;;8.15;3.00;;;;;;;-1.98;100.00;101117.06;5112892;28;20154;-76
2020/12/01 08:54:36;;;;;;;10.65;4.47;;;;;;;-1.99;100.00;101110.06;5109381;28;20116;-76
2020/12/01 08:57:48;;;;;;;3.70;3.38;;;;;;;-2.00;100.00;101117.44;5113218;28;20047;-78
2020/12/01 09:00:34;;;;;;;7.72;2.97;;;;;;;-2.00;100.00;101120.16;5112891;28;20058;-78
2020/12/01 09:03:18;;;;;;;6.60;4.13;;;;;;;-1.99;100.00;101138.09;5113197;28;20536;-78
2020/12/01 09:06:03;;;;;;;2.22;2.03;;;;;;;-1.95;100.00;101132.75;5113001;28;20567;-78
2020/12/01 09:09:00;;;;;;;4.25;1.95;;;;;;;-1.91;100.00;101123.47;5097482;28;20043;-78
2020/12/01 09:23:32;;;;;;;4.55;2.17;;;;;;;-1.72;100.00;101128.91;5113093;28;20050;-76
2020/12/01 09:26:19;;;;;;;6.63;2.58;;;;;;;-1.67;100.00;101128.59;5126574;27;20046;-75
2020/12/01 09:29:05;;;;;;;3.22;2.40;;;;;;;-1.63;100.00;101124.00;5113915;28;20058;-76
2020/12/01 09:31:49;;;;;;;3.83;2.38;;;;;;;-1.61;100.00;101126.38;5113255;28;20043;-77
2020/12/01 09:34:35;;;;;;;4.85;2.70;;;;;;;-1.57;100.00;101133.47;5111163;28;20132;-77
2020/12/01 09:37:20;;;;;;;2.03;1.92;;;;;;;-1.55;100.00;101125.72;5094213;28;20387;-77
2020/12/01 09:40:04;;;;;;;2.42;2.22;;;;;;;-1.46;100.00;101127.41;5110334;28;20043;-76
2020/12/01 09:42:52;;;;;;;5.30;2.42;;;;;;;-1.41;100.00;101140.78;5111117;28;20522;-76
2020/12/01 09:45:38;;;;;;;3.97;1.60;;;;;;;-1.36;100.00;101133.06;5111383;28;20100;-77
2020/12/01 09:48:31;;;;;;;5.07;1.60;;;;;;;-1.32;100.00;101127.69;5112729;28;20054;-76
2020/12/01 09:51:16;;;;;;;4.75;1.83;;;;;;;-1.27;100.00;101139.06;5112486;28;20176;-76
2020/12/01 09:58:05;;;;;;;1.55;1.45;;;;;;;-1.21;100.00;101128.66;5094194;28;20120;-76
2020/12/01 10:12:47;;;;;;;25.08;1.45;;;;;;;-0.91;100.00;101135.00;5108410;28;20510;-76
2020/12/01 10:27:32;;;;;;;1.65;1.58;;;;;;;-0.70;100.00;101127.13;5112314;28;20096;-78
2020/12/01 10:36:23;;;;;;;7.30;0.93;;;;;;;-0.65;100.00;101126.78;5115839;28;20046;-78
2020/12/01 10:39:09;;;;;;;0.57;0.57;;;;;;;-0.66;100.00;101121.69;5095554;28;20127;-77
2020/12/01 10:41:53;;;;;;;6.07;2.17;;;;;;;-0.66;100.00;101117.00;5095533;28;20464;-79
2020/12/01 10:44:37;;;;;;;31.10;8.70;;;;;;;-0.65;100.00;101115.84;5095154;28;20046;-79
2020/12/01 10:47:22;;;;;;;16.17;7.55;;;;;;;-0.65;100.00;101107.63;5095249;28;20062;-79
2020/12/01 10:50:06;;;;;;;14.98;5.25;;;;;;;-0.66;100.00;101111.53;5095433;28;20078;-79
2020/12/01 10:52:51;;;;;;;26.52;8.23;;;;;;;-0.59;100.00;101119.06;5095297;28;20059;-78
2020/12/01 10:55:35;;;;;;;28.95;7.10;;;;;;;-0.53;100.00;101115.63;5095116;28;20511;-79
2020/12/01 10:58:19;;;;;;;6.28;3.17;;;;;;;-0.46;100.00;101121.22;5095231;28;20583;-80
2020/12/01 11:01:03;;;;;;;14.05;4.53;;;;;;;-0.40;100.00;101114.25;5095185;28;20051;-78
2020/12/01 11:03:46;;;;;;;16.17;5.82;;;;;;;-0.34;100.00;101104.56;5095122;28;20042;-78
2020/12/01 11:06:31;;;;;;;6.78;3.17;;;;;;;-0.26;100.00;101103.47;5105487;28;20113;-79
2020/12/01 11:09:16;;;;;;;11.38;3.13;;;;;;;-0.18;100.00;101110.63;5079701;28;20129;-78
2020/12/01 11:11:59;;;;;;;1.95;1.77;;;;;;;-0.12;100.00;101103.66;5079888;28;20093;-78
2020/12/01 11:14:43;;;;;;;3.03;1.83;;;;;;;-0.06;100.00;101102.16;5079414;28;20438;-79
2020/12/01 11:17:27;;;;;;;0.90;0.90;;;;;;;0.04;100.00;101095.25;5079931;28;20039;-78
2020/12/01 11:20:14;;;;;;;0.70;0.70;;;;;;;0.16;100.00;101092.25;5094805;28;20446;-77
2020/12/01 11:22:58;;;;;;;1.17;1.10;;;;;;;0.37;100.00;101088.94;5094419;28;20043;-78
2020/12/01 11:25:42;;;;;;;3.03;1.17;;;;;;;0.50;100.00;101090.22;5094451;28;20128;-78
2020/12/01 11:28:26;;;;;;;3.13;1.15;;;;;;;0.63;100.00;101080.56;5094678;28;20477;-79
2020/12/01 11:31:10;;;;;;;6.20;1.88;;;;;;;0.74;100.00;101087.72;5107717;28;20059;-78
2020/12/01 11:34:07;;;;;;;0.63;0.63;;;;;;;0.77;100.00;101089.72;5114547;28;20054;-78
2020/12/01 11:36:53;;;;;;;1.88;1.58;;;;;;;0.79;100.00;101086.56;5114534;28;20126;-78
2020/12/01 11:39:37;;;;;;;0.63;0.63;;;;;;;0.80;100.00;101079.94;5115045;28;20042;-78
2020/12/01 11:42:21;;;;;;;0.68;0.68;;;;;;;0.84;100.00;101072.53;5114589;28;20051;-77
2020/12/01 11:45:06;;;;;;;1.27;0.80;;;;;;;0.90;100.00;101086.66;5113765;28;20046;-76
2020/12/01 11:47:50;;;;;;;0.77;0.77;;;;;;;0.86;100.00;101081.16;5114582;28;20068;-78
2020/12/01 11:50:34;;;;;;;2.47;1.20;;;;;;;0.85;100.00;101074.09;5114391;28;20464;-78
2020/12/01 11:53:18;;;;;;;4.95;1.30;;;;;;;0.84;100.00;101082.69;5098660;28;20769;-78
2020/12/01 11:56:02;;;;;;;4.95;1.35;;;;;;;0.89;100.00;101085.09;5098976;28;20126;-78
2020/12/01 11:58:45;;;;;;;4.70;2.25;;;;;;;0.91;100.00;101088.25;5114615;28;20055;-77
2020/12/01 12:01:29;;;;;;;4.90;2.17;;;;;;;0.96;100.00;101085.94;5114120;28;20069;-77
2020/12/01 12:04:14;;;;;;;10.45;2.40;;;;;;;1.01;100.00;101093.81;5112878;28;20082;-77
2020/12/01 12:07:00;;;;;;;4.43;1.40;;;;;;;1.11;100.00;101087.59;5114116;28;20101;-78
2020/12/01 12:09:44;;;;;;;1.50;1.27;;;;;;;1.21;100.00;101092.38;5114152;28;20076;-77
2020/12/01 12:12:28;;;;;;;0.95;0.50;;;;;;;1.18;100.00;101082.16;5114102;28;20046;-77
2020/12/01 12:15:12;;;;;;;3.10;1.55;;;;;;;1.21;100.00;101075.91;5127116;27;20049;-77
2020/12/01 12:17:56;;;;;;;1.90;1.58;;;;;;;1.31;100.00;101074.41;5114081;28;20127;-77
2020/12/01 12:20:40;;;;;;;1.80;1.42;;;;;;;1.52;100.00;101075.31;5113769;28;20050;-77
2020/12/01 12:23:24;;;;;;;6.63;3.25;;;;;;;1.61;100.00;101066.72;5113686;28;20092;-77
2020/12/01 12:26:08;;;;;;;1.02;0.93;;;;;;;1.67;100.00;101070.66;5112313;28;20100;-77
2020/12/01 12:28:52;;;;;;;2.67;1.20;;;;;;;1.75;100.00;101072.28;5112894;28;20077;-77
2020/12/01 12:31:36;;;;;;;0.30;0.30;;;;;;;1.85;100.00;101066.03;5098347;28;20043;-77
2020/12/01 12:34:21;;;;;;;0.68;0.68;;;;;;;1.88;100.00;101064.50;5098149;28;20628;-77
2020/12/01 12:37:05;;;;;;;0.35;0.35;;;;;;;1.97;100.00;101051.19;5113520;28;20046;-77
2020/12/01 12:39:49;;;;;;;0.40;0.40;;;;;;;1.99;100.00;101059.81;5127532;27;20085;-78
2020/12/01 12:42:33;;;;;;;0.40;0.40;;;;;;;2.08;100.00;101046.50;5097798;28;20465;-78
2020/12/01 12:45:17;;;;;;;1.25;0.35;;;;;;;2.16;100.00;101048.88;5113282;28;20131;-78
2020/12/01 12:48:01;;;;;;;0.38;0.38;;;;;;;2.22;100.00;101049.28;5112903;28;20050;-78
2020/12/01 12:50:45;;;;;;;0.20;0.20;;;;;;;2.39;100.00;101044.97;5112133;28;20046;-78
2020/12/01 12:53:29;;;;;;;0.98;0.98;;;;;;;2.37;100.00;101045.38;5113306;28;20134;-78
2020/12/01 12:56:13;;;;;;;1.30;1.20;;;;;;;2.46;100.00;101040.28;5112540;28;20122;-78
2020/12/01 12:58:57;;;;;;;0.20;0.20;;;;;;;2.55;100.00;101048.94;5113066;28;20427;-79
2020/12/01 13:01:41;;;;;;;0.63;0.63;;;;;;;2.65;100.00;101037.13;5113261;28;20059;-79
2020/12/01 13:04:26;;;;;;;0.35;0.35;;;;;;;2.72;100.00;101036.34;5113023;28;20116;-78
2020/12/01 13:07:10;;;;;;;0.63;0.63;;;;;;;2.77;100.00;101036.72;5097970;28;20119;-79
2020/12/01 13:09:54;;;;;;;1.15;0.63;;;;;;;2.80;100.00;101037.91;5112950;28;20589;-78
2020/12/01 13:12:44;;;;;;;0.45;0.45;;;;;;;2.85;100.00;101041.06;5114072;28;20135;-78
2020/12/01 13:15:28;;;;;;;0.77;0.77;;;;;;;2.92;100.00;101041.03;5113080;28;20134;-78
2020/12/01 13:18:12;;;;;;;0.20;0.20;;;;;;;2.99;100.00;101041.03;5112946;28;20518;-78
2020/12/01 13:20:56;;;;;;;1.55;0.35;;;;;;;2.95;100.00;101037.50;5112391;28;20047;-78
2020/12/01 13:23:40;;;;;;;1.83;0.80;;;;;;;2.93;100.00;101037.13;5112523;28;20065;-79
2020/12/01 13:26:24;;;;;;;0.40;0.40;;;;;;;2.98;100.00;101033.97;5125987;27;20071;-79
2020/12/01 13:29:08;;;;;;;4.72;1.45;;;;;;;2.92;100.00;101032.03;5112845;28;20034;-78
2020/12/01 13:31:52;;;;;;;0.70;0.70;;;;;;;2.98;100.00;101033.19;5112353;28;20057;-78
2020/12/01 13:34:36;;;;;;;0.50;0.50;;;;;;;2.95;100.00;101023.75;5112756;28;20093;-79
2020/12/01 13:37:20;;;;;;;0.30;0.30;;;;;;;2.95;100.00;101036.72;5097997;28;20097;-78
2020/12/01 13:40:05;;;;;;;6.22;0.77;;;;;;;2.91;100.00;101036.72;5112001;28;20050;-77
2020/12/01 13:42:49;;;;;;;0.65;0.65;;;;;;;2.91;100.00;101042.22;5111895;28;20042;-78
2020/12/01 13:45:33;;;;;;;3.13;0.68;;;;;;;2.96;100.00;101036.34;5111763;28;20066;-78